Time;durP1;ratioP1;P1;durP2;ratioP2;P2;SDS_P1;SDS_P2;PMS_P1;PMS_P2;Temp;Humidity;BMP_temperature;BMP_pressure;BME280_temperature;BME280_humidity;BME280_pressure;Samples;Min_cycle;Max_cycle;Signal;HPM_P1;HPM_P2
2023/10/08 00:02:26;;;;;;;11.63;5.18;;;;;;;;;;5042505;28;20506;-63
2023/10/08 00:04:54;;;;;;;10.02;5.05;;;;;;;;;;5041093;28;20503;-63
2023/10/08 00:07:21;;;;;;;10.10;5.20;;;;;;;;;;5044558;28;20836;-63
2023/10/08 00:09:50;;;;;;;8.85;5.43;;;;;;;;;;5042451;28;20416;-63
2023/10/08 00:12:19;;;;;;;10.32;4.85;;;;;;;;;;5043752;28;20791;-63
2023/10/08 00:14:49;;;;;;;10.27;5.13;;;;;;;;;;5041582;28;20831;-63
2023/10/08 00:17:16;;;;;;;8.20;4.50;;;;;;;;;;5045142;28;20468;-63
2023/10/08 00:19:44;;;;;;;9.90;5.00;;;;;;;;;;5043208;28;20494;-63
2023/10/08 00:22:12;;;;;;;9.40;4.88;;;;;;;;;;5046303;28;20523;-63
2023/10/08 00:24:41;;;;;;;9.75;4.68;;;;;;;;;;5045278;28;20489;-63
2023/10/08 00:27:08;;;;;;;6.78;4.97;;;;;;;;;;5043502;28;20826;-63
2023/10/08 00:29:56;;;;;;;8.30;4.93;;;;;;;;;;5042209;28;20418;-65
2023/10/08 00:32:23;;;;;;;9.40;4.70;;;;;;;;;;5041674;28;20415;-63
2023/10/08 00:34:50;;;;;;;12.15;5.35;;;;;;;;;;5039820;28;20468;-63
2023/10/08 00:37:17;;;;;;;8.93;4.97;;;;;;;;;;5044130;28;20893;-64
2023/10/08 00:39:45;;;;;;;8.77;4.80;;;;;;;;;;5041859;28;20491;-63
2023/10/08 00:42:12;;;;;;;10.63;5.00;;;;;;;;;;5043016;28;20427;-63
2023/10/08 00:44:47;;;;;;;10.63;5.32;;;;;;;;;;5044034;28;20501;-63
2023/10/08 00:47:17;;;;;;;10.00;5.53;;;;;;;;;;5040863;28;20411;-63
2023/10/08 00:49:54;;;;;;;10.93;5.03;;;;;;;;;;5040484;28;20967;-63
2023/10/08 00:52:29;;;;;;;11.15;5.10;;;;;;;;;;5040660;28;20419;-63
2023/10/08 00:55:09;;;;;;;10.80;5.45;;;;;;;;;;5040232;28;20422;-63
2023/10/08 00:57:37;;;;;;;8.43;5.07;;;;;;;;;;5040530;28;20416;-64
2023/10/08 01:00:12;;;;;;;10.07;5.35;;;;;;;;;;5041135;28;20423;-63
2023/10/08 01:02:48;;;;;;;9.02;5.10;;;;;;;;;;5040297;28;20411;-63
2023/10/08 01:05:20;;;;;;;10.88;5.60;;;;;;;;;;5039773;28;20413;-63
2023/10/08 01:07:51;;;;;;;8.93;4.82;;;;;;;;;;5038802;28;20417;-63
2023/10/08 01:10:20;;;;;;;10.75;5.20;;;;;;;;;;5042276;28;20418;-63
2023/10/08 01:13:03;;;;;;;9.20;5.20;;;;;;;;;;5040138;28;20442;-63
2023/10/08 01:15:35;;;;;;;10.18;4.65;;;;;;;;;;5039409;28;20437;-63
2023/10/08 01:18:06;;;;;;;8.52;4.95;;;;;;;;;;5039363;28;20438;-63
2023/10/08 01:20:37;;;;;;;11.07;5.00;;;;;;;;;;5039663;28;20419;-63
2023/10/08 01:23:09;;;;;;;9.38;5.13;;;;;;;;;;5043125;28;20509;-63
2023/10/08 01:25:37;;;;;;;8.90;4.95;;;;;;;;;;5039118;28;20413;-64
2023/10/08 01:28:09;;;;;;;9.25;4.72;;;;;;;;;;5040360;28;20989;-63
2023/10/08 01:30:41;;;;;;;10.40;4.82;;;;;;;;;;5039280;28;20423;-63
2023/10/08 01:33:11;;;;;;;10.18;4.97;;;;;;;;;;5040531;28;20777;-63
2023/10/08 01:35:38;;;;;;;8.98;4.40;;;;;;;;;;5040222;28;20431;-63
2023/10/08 01:38:13;;;;;;;11.40;5.20;;;;;;;;;;5041953;28;20761;-63
2023/10/08 01:40:40;;;;;;;9.55;4.85;;;;;;;;;;5041184;28;20414;-63
2023/10/08 01:43:07;;;;;;;12.00;5.10;;;;;;;;;;5039039;28;20767;-63
2023/10/08 01:45:40;;;;;;;12.23;5.40;;;;;;;;;;5040795;28;20883;-64
2023/10/08 01:48:09;;;;;;;9.48;5.00;;;;;;;;;;5041557;28;20413;-63
2023/10/08 01:50:36;;;;;;;11.50;5.32;;;;;;;;;;5042967;28;20454;-63
2023/10/08 01:53:05;;;;;;;8.85;4.60;;;;;;;;;;5042505;28;20416;-63
2023/10/08 01:55:44;;;;;;;9.97;5.00;;;;;;;;;;5042094;28;20430;-64
2023/10/08 01:58:11;;;;;;;8.70;4.63;;;;;;;;;;5041174;28;20413;-64
2023/10/08 02:00:38;;;;;;;8.27;4.90;;;;;;;;;;5038965;28;20415;-64
2023/10/08 02:03:09;;;;;;;10.27;5.30;;;;;;;;;;5040691;28;20431;-64
2023/10/08 02:05:39;;;;;;;9.70;5.40;;;;;;;;;;5041318;28;20420;-64
2023/10/08 02:08:06;;;;;;;12.43;5.07;;;;;;;;;;5038768;28;20901;-64
2023/10/08 02:10:35;;;;;;;8.75;4.63;;;;;;;;;;5040213;28;20499;-64
2023/10/08 02:13:02;;;;;;;8.48;4.68;;;;;;;;;;5041860;28;20472;-64
2023/10/08 02:15:29;;;;;;;8.82;5.35;;;;;;;;;;5039256;28;20940;-64
2023/10/08 02:17:56;;;;;;;8.87;5.00;;;;;;;;;;5039893;28;20413;-64
2023/10/08 02:20:23;;;;;;;11.70;5.05;;;;;;;;;;5041437;28;20443;-64
2023/10/08 02:22:51;;;;;;;12.82;5.50;;;;;;;;;;5040972;28;20467;-64
2023/10/08 02:25:18;;;;;;;12.13;5.45;;;;;;;;;;5039827;28;20414;-64
2023/10/08 02:27:47;;;;;;;11.02;5.20;;;;;;;;;;5038766;28;20811;-64
2023/10/08 02:30:14;;;;;;;10.70;5.72;;;;;;;;;;5039273;28;20407;-64
2023/10/08 02:32:42;;;;;;;11.55;5.55;;;;;;;;;;5039942;28;20413;-63
2023/10/08 02:35:11;;;;;;;10.63;5.13;;;;;;;;;;5041609;28;20409;-63
2023/10/08 02:37:39;;;;;;;11.75;5.47;;;;;;;;;;5039107;28;20451;-63
2023/10/08 02:40:16;;;;;;;9.32;5.70;;;;;;;;;;5039260;28;20492;-63
2023/10/08 02:42:43;;;;;;;9.43;5.65;;;;;;;;;;5039107;28;20415;-63
2023/10/08 02:45:13;;;;;;;9.98;5.70;;;;;;;;;;5039221;28;20411;-63
2023/10/08 02:47:41;;;;;;;16.02;6.10;;;;;;;;;;5041262;28;20500;-63
2023/10/08 02:50:16;;;;;;;13.82;5.82;;;;;;;;;;5041763;28;20428;-63
2023/10/08 02:52:44;;;;;;;11.23;5.85;;;;;;;;;;5041858;28;20405;-63
2023/10/08 02:55:23;;;;;;;11.30;5.63;;;;;;;;;;5039217;28;20422;-63
2023/10/08 02:57:51;;;;;;;12.45;6.22;;;;;;;;;;5042386;28;20501;-63
2023/10/08 03:00:20;;;;;;;12.97;6.47;;;;;;;;;;5041356;28;20409;-63
2023/10/08 03:02:48;;;;;;;11.95;5.88;;;;;;;;;;5045154;28;20412;-63
2023/10/08 03:05:17;;;;;;;13.77;5.57;;;;;;;;;;5045969;28;20422;-63
2023/10/08 03:07:44;;;;;;;11.57;5.93;;;;;;;;;;5043111;28;20427;-63
2023/10/08 03:10:18;;;;;;;12.30;6.05;;;;;;;;;;5045103;28;20413;-64
2023/10/08 03:12:46;;;;;;;11.88;5.80;;;;;;;;;;5043330;28;20437;-63
2023/10/08 03:15:14;;;;;;;11.40;5.90;;;;;;;;;;5042088;28;20472;-63
2023/10/08 03:17:49;;;;;;;13.77;5.82;;;;;;;;;;5045860;28;20488;-63
2023/10/08 03:20:29;;;;;;;11.57;5.38;;;;;;;;;;5041975;28;20825;-63
2023/10/08 03:22:57;;;;;;;11.82;6.00;;;;;;;;;;5044827;28;20606;-63
2023/10/08 03:25:26;;;;;;;10.40;6.00;;;;;;;;;;5044430;28;20413;-63
2023/10/08 03:27:54;;;;;;;10.63;5.57;;;;;;;;;;5042576;28;20446;-63
2023/10/08 03:30:21;;;;;;;12.18;5.80;;;;;;;;;;5042617;28;20415;-63
2023/10/08 03:32:54;;;;;;;13.75;6.65;;;;;;;;;;5044899;28;20424;-65
2023/10/08 03:35:27;;;;;;;14.38;6.10;;;;;;;;;;5044717;28;20430;-65
2023/10/08 03:38:17;;;;;;;12.18;5.88;;;;;;;;;;5042697;28;20391;-65
2023/10/08 03:40:43;;;;;;;13.48;6.00;;;;;;;;;;5041734;28;20460;-63
2023/10/08 03:43:33;;;;;;;13.07;5.82;;;;;;;;;;5041516;28;20415;-64
2023/10/08 03:45:59;;;;;;;10.70;5.88;;;;;;;;;;5042863;28;20437;-65
2023/10/08 03:48:32;;;;;;;12.80;6.28;;;;;;;;;;5041684;28;20504;-63
2023/10/08 03:51:06;;;;;;;14.03;5.73;;;;;;;;;;5043609;28;20470;-63
2023/10/08 03:53:37;;;;;;;12.53;5.50;;;;;;;;;;5045904;28;20954;-64
2023/10/08 03:56:06;;;;;;;10.25;5.43;;;;;;;;;;5042598;28;20427;-64
2023/10/08 03:58:40;;;;;;;12.90;5.80;;;;;;;;;;5041127;28;20419;-64
2023/10/08 04:01:10;;;;;;;10.73;6.30;;;;;;;;;;5044907;28;20407;-64
2023/10/08 04:03:57;;;;;;;10.98;5.70;;;;;;;;;;5041348;28;20423;-64
2023/10/08 04:06:30;;;;;;;11.93;6.00;;;;;;;;;;5044089;28;20413;-64
2023/10/08 04:09:11;;;;;;;10.07;5.70;;;;;;;;;;5041254;28;20419;-64
2023/10/08 04:11:49;;;;;;;11.82;5.75;;;;;;;;;;5041602;28;20414;-64
2023/10/08 04:14:16;;;;;;;14.38;6.43;;;;;;;;;;5040797;28;20420;-64
2023/10/08 04:16:44;;;;;;;13.80;6.43;;;;;;;;;;5041552;28;20433;-64
2023/10/08 04:19:12;;;;;;;15.13;6.47;;;;;;;;;;5041663;28;20414;-64
2023/10/08 04:21:42;;;;;;;12.45;6.25;;;;;;;;;;5043388;28;20413;-64
2023/10/08 04:24:10;;;;;;;11.77;6.40;;;;;;;;;;5043020;28;20415;-64
2023/10/08 04:26:40;;;;;;;15.70;6.82;;;;;;;;;;5040852;28;20421;-64
2023/10/08 04:29:08;;;;;;;11.70;6.55;;;;;;;;;;5046647;28;20875;-64
2023/10/08 04:31:37;;;;;;;14.77;6.88;;;;;;;;;;5040460;28;20468;-64
2023/10/08 04:34:09;;;;;;;13.75;6.07;;;;;;;;;;5048231;28;20415;-65
2023/10/08 04:36:39;;;;;;;13.38;6.20;;;;;;;;;;5042137;28;20425;-64
2023/10/08 04:39:13;;;;;;;13.93;5.95;;;;;;;;;;5043345;28;20409;-64
2023/10/08 04:41:42;;;;;;;13.98;5.95;;;;;;;;;;5044252;28;20415;-64
2023/10/08 04:44:14;;;;;;;13.60;5.90;;;;;;;;;;5040568;28;20886;-64
2023/10/08 04:46:47;;;;;;;11.25;6.03;;;;;;;;;;5040952;28;20414;-64
2023/10/08 04:49:26;;;;;;;12.43;6.22;;;;;;;;;;5040798;28;20778;-64
2023/10/08 04:51:56;;;;;;;11.25;6.25;;;;;;;;;;5042030;28;20418;-64
2023/10/08 04:54:23;;;;;;;13.10;6.20;;;;;;;;;;5043820;28;20449;-64
2023/10/08 04:56:52;;;;;;;12.30;6.03;;;;;;;;;;5039144;28;20818;-64
2023/10/08 04:59:21;;;;;;;13.60;6.37;;;;;;;;;;5042400;28;20413;-64
2023/10/08 05:01:48;;;;;;;13.87;6.40;;;;;;;;;;5040062;28;20513;-64
2023/10/08 05:04:26;;;;;;;14.05;6.93;;;;;;;;;;5041975;28;20433;-64
2023/10/08 05:09:51;;;;;;;13.38;6.35;;;;;;;;;;5040152;28;20476;-64
2023/10/08 05:12:34;;;;;;;14.73;6.40;;;;;;;;;;5040087;28;20418;-64
2023/10/08 05:17:58;;;;;;;11.98;6.43;;;;;;;;;;5042228;28;20548;-64
2023/10/08 05:20:44;;;;;;;10.68;6.55;;;;;;;;;;5040896;28;20433;-64
2023/10/08 05:23:53;;;;;;;13.05;6.07;;;;;;;;;;5047100;28;20418;-64
2023/10/08 05:26:09;;;;;;;12.77;6.28;;;;;;;;;;5038545;28;20413;-66
2023/10/08 05:28:46;;;;;;;16.50;6.60;;;;;;;;;;5041923;28;20891;-64
2023/10/08 05:31:31;;;;;;;13.63;6.40;;;;;;;;;;5042473;28;20416;-64
2023/10/08 05:34:14;;;;;;;12.77;6.40;;;;;;;;;;5042310;28;20414;-64
2023/10/08 05:36:50;;;;;;;15.30;6.83;;;;;;;;;;5042012;28;20429;-64
2023/10/08 05:39:29;;;;;;;16.08;7.05;;;;;;;;;;5040539;28;20464;-64
2023/10/08 05:42:13;;;;;;;15.13;7.50;;;;;;;;;;5039552;28;20443;-64
2023/10/08 05:44:40;;;;;;;12.00;6.40;;;;;;;;;;5039368;28;20912;-63
2023/10/08 05:47:12;;;;;;;15.45;6.63;;;;;;;;;;5040851;28;20826;-64
2023/10/08 05:49:52;;;;;;;14.05;6.60;;;;;;;;;;5042236;28;20834;-64
2023/10/08 05:52:41;;;;;;;12.68;6.93;;;;;;;;;;5041238;28;20416;-64
2023/10/08 05:55:22;;;;;;;15.55;6.95;;;;;;;;;;5038240;28;20758;-64
2023/10/08 05:57:52;;;;;;;11.13;6.45;;;;;;;;;;5041704;28;20427;-64
2023/10/08 06:03:46;;;;;;;11.02;6.20;;;;;;;;;;5162166;27;20345;-64
2023/10/08 06:06:37;;;;;;;15.88;6.57;;;;;;;;;;5159817;27;20425;-64
2023/10/08 06:09:21;;;;;;;11.53;6.17;;;;;;;;;;5160771;27;20400;-64
2023/10/08 06:12:09;;;;;;;13.43;6.82;;;;;;;;;;5160840;27;20953;-64
2023/10/08 06:17:55;;;;;;;15.07;7.25;;;;;;;;;;5136733;27;20401;-64
2023/10/08 06:20:25;;;;;;;16.00;7.13;;;;;;;;;;5156845;27;20394;-64
2023/10/08 06:22:54;;;;;;;12.10;6.50;;;;;;;;;;5153443;27;20449;-64
2023/10/08 06:25:23;;;;;;;11.93;6.03;;;;;;;;;;5151310;27;20417;-64
2023/10/08 06:27:55;;;;;;;12.68;6.53;;;;;;;;;;5160154;27;20396;-64
2023/10/08 06:30:24;;;;;;;13.30;6.60;;;;;;;;;;5154688;27;20451;-64
2023/10/08 06:32:53;;;;;;;14.30;6.72;;;;;;;;;;5158392;27;20598;-64
2023/10/08 06:35:25;;;;;;;12.85;6.53;;;;;;;;;;5160538;27;20404;-64
2023/10/08 06:37:55;;;;;;;15.07;6.95;;;;;;;;;;5159253;27;20402;-64
2023/10/08 06:40:41;;;;;;;14.45;6.55;;;;;;;;;;5157421;27;20406;-64
2023/10/08 06:43:21;;;;;;;13.97;6.73;;;;;;;;;;5157039;27;20429;-64
2023/10/08 06:45:52;;;;;;;16.80;6.82;;;;;;;;;;5157651;27;20406;-64
2023/10/08 06:48:20;;;;;;;15.38;6.22;;;;;;;;;;5153840;27;20405;-65
2023/10/08 06:50:47;;;;;;;14.85;6.88;;;;;;;;;;5160063;27;20469;-64
2023/10/08 06:53:17;;;;;;;13.98;6.95;;;;;;;;;;5160275;27;20403;-64
2023/10/08 06:55:45;;;;;;;18.70;7.10;;;;;;;;;;5152645;27;20409;-65
2023/10/08 06:58:14;;;;;;;14.50;6.90;;;;;;;;;;5158278;27;20532;-64
2023/10/08 07:00:46;;;;;;;16.02;7.53;;;;;;;;;;5160340;27;20408;-65
2023/10/08 07:03:15;;;;;;;13.93;6.85;;;;;;;;;;5158632;27;20494;-66
2023/10/08 07:05:44;;;;;;;13.27;7.00;;;;;;;;;;5157020;27;20406;-64
2023/10/08 07:08:14;;;;;;;12.85;7.30;;;;;;;;;;5159673;27;20456;-69
2023/10/08 07:10:45;;;;;;;14.35;7.38;;;;;;;;;;5159862;27;20897;-65
2023/10/08 07:13:17;;;;;;;13.20;6.25;;;;;;;;;;5148589;27;20545;-64
2023/10/08 07:15:45;;;;;;;17.10;6.88;;;;;;;;;;5143862;27;20417;-65
2023/10/08 07:18:14;;;;;;;13.80;7.10;;;;;;;;;;5145793;27;20437;-65
2023/10/08 07:20:42;;;;;;;15.82;6.80;;;;;;;;;;5144160;27;20406;-65
2023/10/08 07:23:24;;;;;;;15.88;7.60;;;;;;;;;;5137362;27;20474;-65
2023/10/08 07:26:00;;;;;;;14.50;6.85;;;;;;;;;;5139606;27;20405;-65
2023/10/08 07:28:27;;;;;;;16.50;6.83;;;;;;;;;;5139936;27;20489;-65
2023/10/08 07:30:54;;;;;;;13.18;6.50;;;;;;;;;;5143736;27;20757;-65
2023/10/08 07:33:24;;;;;;;14.70;7.15;;;;;;;;;;5145559;27;20397;-64
2023/10/08 07:35:57;;;;;;;15.25;6.90;;;;;;;;;;5143829;27;20421;-64
2023/10/08 07:38:26;;;;;;;14.57;6.57;;;;;;;;;;5142739;27;20413;-66
2023/10/08 07:40:55;;;;;;;14.17;7.17;;;;;;;;;;5139489;27;20406;-64
2023/10/08 07:43:22;;;;;;;13.40;6.43;;;;;;;;;;5143364;27;20513;-65
2023/10/08 07:45:49;;;;;;;14.77;6.80;;;;;;;;;;5144994;27;20412;-63
2023/10/08 07:48:16;;;;;;;14.80;7.30;;;;;;;;;;5143058;27;20774;-64
2023/10/08 07:50:45;;;;;;;16.10;7.55;;;;;;;;;;5143659;27;20404;-65
2023/10/08 07:53:17;;;;;;;22.38;10.95;;;;;;;;;;5140072;27;20423;-65
2023/10/08 07:55:45;;;;;;;27.27;12.90;;;;;;;;;;5141901;27;20413;-65
2023/10/08 07:58:14;;;;;;;34.88;15.48;;;;;;;;;;5142439;27;20467;-65
2023/10/08 08:00:41;;;;;;;28.42;13.20;;;;;;;;;;5139515;27;20413;-65
2023/10/08 08:03:08;;;;;;;35.28;14.25;;;;;;;;;;5143896;27;20423;-65
2023/10/08 08:05:37;;;;;;;25.40;12.65;;;;;;;;;;5145214;27;20762;-65
2023/10/08 08:08:06;;;;;;;22.20;11.77;;;;;;;;;;5139539;27;20467;-65
2023/10/08 08:10:36;;;;;;;20.45;12.43;;;;;;;;;;5143277;27;20485;-65
2023/10/08 08:13:05;;;;;;;15.73;10.90;;;;;;;;;;5142442;27;20409;-65
2023/10/08 08:15:36;;;;;;;15.50;11.13;;;;;;;;;;5143957;27;20415;-64
2023/10/08 08:18:05;;;;;;;16.70;11.80;;;;;;;;;;5144907;27;20445;-63
2023/10/08 08:20:38;;;;;;;19.23;15.40;;;;;;;;;;5125822;27;20958;-63
2023/10/08 08:23:07;;;;;;;30.85;19.95;;;;;;;;;;5117998;27;20822;-68
2023/10/08 08:25:45;;;;;;;39.78;24.27;;;;;;;;;;5127533;27;20500;-65
2023/10/08 08:28:16;;;;;;;43.78;28.67;;;;;;;;;;5124396;27;20456;-63
2023/10/08 08:30:46;;;;;;;41.35;24.17;;;;;;;;;;5139317;27;20429;-65
2023/10/08 08:33:16;;;;;;;31.80;20.30;;;;;;;;;;5129389;27;20493;-66
2023/10/08 08:35:45;;;;;;;29.88;16.23;;;;;;;;;;5130875;27;20493;-62
2023/10/08 08:38:12;;;;;;;20.95;13.25;;;;;;;;;;5138302;27;21022;-63
2023/10/08 08:40:39;;;;;;;16.05;10.77;;;;;;;;;;5140435;27;20412;-66
2023/10/08 08:43:07;;;;;;;19.20;10.38;;;;;;;;;;5139522;27;20418;-63
2023/10/08 08:45:35;;;;;;;13.40;8.70;;;;;;;;;;5131367;27;20482;-63
2023/10/08 08:48:04;;;;;;;20.52;9.55;;;;;;;;;;5135353;27;20816;-63
2023/10/08 08:50:32;;;;;;;14.73;8.90;;;;;;;;;;5135913;27;20499;-64
2023/10/08 08:52:59;;;;;;;12.70;7.93;;;;;;;;;;5119747;27;20418;-65
2023/10/08 08:55:28;;;;;;;14.60;7.65;;;;;;;;;;5138731;27;20923;-65
2023/10/08 08:57:55;;;;;;;16.65;7.82;;;;;;;;;;5137420;27;20434;-65
2023/10/08 09:00:25;;;;;;;16.30;7.45;;;;;;;;;;5142626;27;20400;-65
2023/10/08 09:02:52;;;;;;;12.73;7.30;;;;;;;;;;5137568;27;20425;-65
2023/10/08 09:05:33;;;;;;;14.32;6.88;;;;;;;;;;5138517;27;20431;-63
2023/10/08 09:08:03;;;;;;;15.80;7.10;;;;;;;;;;5135571;27;20444;-63
2023/10/08 09:10:36;;;;;;;12.50;6.00;;;;;;;;;;5128845;27;20824;-66
2023/10/08 09:13:04;;;;;;;14.48;6.35;;;;;;;;;;5133969;27;20469;-65
2023/10/08 09:15:32;;;;;;;12.48;5.95;;;;;;;;;;5130942;27;20746;-68
2023/10/08 09:18:00;;;;;;;10.63;5.78;;;;;;;;;;5139580;27;20526;-65
2023/10/08 09:20:29;;;;;;;11.00;5.60;;;;;;;;;;5132249;27;20407;-66
2023/10/08 09:23:08;;;;;;;9.40;4.30;;;;;;;;;;5132578;27;21191;-65
2023/10/08 09:25:35;;;;;;;7.18;4.40;;;;;;;;;;5132233;27;20461;-65
2023/10/08 09:28:02;;;;;;;8.70;4.47;;;;;;;;;;5137617;27;21157;-65
2023/10/08 09:30:30;;;;;;;8.50;3.47;;;;;;;;;;5138822;27;20423;-66
2023/10/08 09:32:57;;;;;;;5.22;2.88;;;;;;;;;;5134371;27;20418;-65
2023/10/08 09:35:26;;;;;;;5.30;2.87;;;;;;;;;;5137389;27;20536;-65
2023/10/08 09:37:55;;;;;;;3.58;2.45;;;;;;;;;;5139124;27;20546;-66
2023/10/08 09:40:23;;;;;;;6.00;2.90;;;;;;;;;;5141344;27;20455;-69
2023/10/08 09:42:50;;;;;;;5.47;2.78;;;;;;;;;;5138240;27;20781;-66
2023/10/08 09:45:17;;;;;;;5.60;3.00;;;;;;;;;;5132875;27;20401;-67
2023/10/08 09:47:47;;;;;;;4.95;2.67;;;;;;;;;;5135248;27;20401;-66
2023/10/08 09:50:15;;;;;;;3.72;2.40;;;;;;;;;;5140938;27;20934;-65
2023/10/08 09:52:44;;;;;;;3.50;1.97;;;;;;;;;;5129201;27;20439;-65
2023/10/08 09:55:13;;;;;;;3.25;1.75;;;;;;;;;;5127485;27;20409;-65
2023/10/08 09:57:40;;;;;;;1.40;1.30;;;;;;;;;;5129231;27;20424;-66
2023/10/08 10:00:10;;;;;;;2.67;1.00;;;;;;;;;;5128352;27;20991;-67
2023/10/08 10:02:37;;;;;;;2.00;0.90;;;;;;;;;;5131411;27;20466;-65
2023/10/08 10:05:06;;;;;;;1.92;1.08;;;;;;;;;;5132433;27;20465;-65
2023/10/08 10:07:33;;;;;;;2.30;0.80;;;;;;;;;;5125131;27;20859;-65
2023/10/08 10:10:00;;;;;;;1.80;1.00;;;;;;;;;;5131491;27;20461;-64
2023/10/08 10:12:28;;;;;;;2.22;1.00;;;;;;;;;;5139618;27;20404;-65
2023/10/08 10:14:56;;;;;;;1.95;0.88;;;;;;;;;;5135296;27;20406;-65
2023/10/08 10:17:25;;;;;;;4.13;1.00;;;;;;;;;;5130956;27;20415;-65
2023/10/08 10:19:52;;;;;;;2.50;1.00;;;;;;;;;;5125204;27;20446;-65
2023/10/08 10:22:28;;;;;;;3.95;1.10;;;;;;;;;;5136380;27;20497;-65
2023/10/08 10:24:55;;;;;;;3.13;1.45;;;14.30;99.90;;;;;;5128022;27;20470;-65
2023/10/08 10:27:22;;;;;;;3.58;1.50;;;14.70;99.90;;;;;;5137766;27;20854;-63
2023/10/08 10:29:51;;;;;;;1.70;1.27;;;14.30;99.90;;;;;;5141215;27;20412;-63
2023/10/08 10:32:18;;;;;;;2.08;1.45;;;;;;;;;;5122886;28;20481;-63
2023/10/08 10:34:47;;;;;;;4.55;2.47;;;;;;;;;;5132614;27;20796;-63
2023/10/08 10:37:22;;;;;;;2.85;1.60;;;;;;;;;;5134745;27;20949;-64
2023/10/08 10:39:54;;;;;;;3.95;1.70;;;14.20;99.90;;;;;;5135445;27;20433;-64
2023/10/08 10:42:22;;;;;;;3.53;1.80;;;;;;;;;;5134905;27;20456;-63
2023/10/08 10:44:52;;;;;;;4.68;1.48;;;;;;;;;;5138752;27;20501;-63
2023/10/08 10:47:27;;;;;;;3.67;1.70;;;;;;;;;;5141778;27;20452;-63
2023/10/08 10:50:18;;;;;;;6.33;1.60;;;;;;;;;;5140299;27;20461;-63
2023/10/08 10:52:45;;;;;;;3.10;1.33;;;;;;;;;;5137290;27;20455;-65
2023/10/08 10:55:20;;;;;;;4.93;1.30;;;;;;;;;;5137729;27;20479;-65
2023/10/08 10:57:55;;;;;;;2.22;1.00;;;;;;;;;;5141280;27;20401;-64
2023/10/08 11:03:16;;;;;;;2.17;1.00;;;;;;;;;;5141553;27;20993;-64
2023/10/08 11:05:47;;;;;;;3.05;0.90;;;;;;;;;;5143129;27;20446;-64
2023/10/08 11:08:15;;;;;;;2.75;0.98;;;;;;;;;;5132791;27;20417;-63
2023/10/08 11:10:49;;;;;;;3.33;1.10;;;;;;;;;;5137895;27;20493;-64
2023/10/08 11:13:16;;;;;;;3.55;0.82;;;;;;;;;;5139873;27;20414;-64
2023/10/08 11:15:49;;;;;;;1.50;0.90;;;;;;;;;;5143820;27;20832;-64
2023/10/08 11:18:17;;;;;;;3.58;1.00;;;;;;;;;;5145101;27;20433;-64
2023/10/08 11:20:45;;;;;;;2.37;0.90;;;;;;;;;;5142234;27;20476;-64
2023/10/08 11:23:21;;;;;;;3.83;1.10;;;;;;;;;;5139067;27;20832;-64
2023/10/08 11:25:59;;;;;;;3.25;1.23;;;;;;;;;;5134786;27;20395;-64
2023/10/08 11:28:27;;;;;;;2.42;1.00;;;;;;;;;;5142045;27;20426;-63
2023/10/08 11:30:59;;;;;;;2.95;0.90;;;;;;;;;;5143678;27;20423;-64
2023/10/08 11:33:27;;;;;;;1.92;0.82;;;;;;;;;;5144401;27;20418;-64
2023/10/08 11:35:59;;;;;;;3.42;1.23;;;;;;;;;;5138275;27;20754;-65
2023/10/08 11:38:27;;;;;;;5.07;1.00;;;;;;;;;;5142693;27;20398;-64
2023/10/08 11:40:56;;;;;;;2.80;1.20;;;;;;;;;;5144515;27;20409;-64
2023/10/08 11:43:23;;;;;;;4.70;1.30;;;;;;;;;;5142343;27;20996;-64
2023/10/08 11:45:50;;;;;;;3.25;1.13;;;;;;;;;;5142013;27;20414;-64
2023/10/08 11:48:25;;;;;;;4.50;1.30;;;;;;;;;;5144673;27;20401;-64
2023/10/08 11:50:52;;;;;;;3.30;1.17;;;;;;;;;;5143416;27;20397;-65
2023/10/08 11:53:20;;;;;;;2.75;1.35;;;;;;;;;;5138159;27;20450;-65
2023/10/08 11:55:47;;;;;;;4.00;1.47;;;;;;;;;;5139016;27;20551;-66
2023/10/08 11:58:19;;;;;;;4.07;1.35;;;;;;;;;;5142659;27;20414;-66
2023/10/08 12:00:52;;;;;;;3.25;1.10;;;;;;;;;;5136815;27;20513;-65
2023/10/08 12:03:20;;;;;;;2.90;1.27;;;;;;;;;;5141232;27;20534;-66
2023/10/08 12:05:49;;;;;;;3.55;1.30;;;;;;;;;;5136937;27;20417;-64
2023/10/08 12:08:16;;;;;;;3.15;1.40;;;;;;;;;;5141751;27;20408;-65
2023/10/08 12:10:45;;;;;;;5.03;1.73;;;;;;;;;;5140410;27;20416;-64
2023/10/08 12:13:12;;;;;;;4.82;1.83;;;;;;;;;;5140323;27;20476;-65
2023/10/08 12:15:41;;;;;;;5.47;1.48;;;;;;;;;;5136979;27;20406;-64
2023/10/08 12:18:15;;;;;;;3.72;1.80;;;;;;;;;;5137704;27;20822;-65
2023/10/08 12:20:47;;;;;;;2.90;1.42;;;;;;;;;;5133480;27;20841;-65
2023/10/08 12:23:24;;;;;;;3.93;1.53;;;;;;;;;;5134541;27;20535;-65
2023/10/08 12:25:52;;;;;;;3.78;1.60;;;;;;;;;;5136823;27;20403;-64
2023/10/08 12:28:19;;;;;;;3.50;1.23;;;;;;;;;;5140655;27;20765;-65
2023/10/08 12:30:46;;;;;;;3.45;1.80;;;;;;;;;;5137318;27;20516;-65
2023/10/08 12:33:15;;;;;;;3.65;1.65;;;;;;;;;;5137272;27;20817;-65
2023/10/08 12:35:44;;;;;;;3.22;1.55;;;;;;;;;;5143900;27;20400;-65
2023/10/08 12:38:12;;;;;;;3.05;1.30;;;;;;;;;;5141403;27;20880;-65
2023/10/08 12:40:47;;;;;;;4.43;1.55;;;;;;;;;;5141318;27;20410;-65
2023/10/08 12:43:18;;;;;;;5.57;1.60;;;;;;;;;;5137206;27;20808;-65
2023/10/08 12:45:51;;;;;;;3.13;1.33;;;;;;;;;;5140844;27;20442;-65
2023/10/08 12:48:18;;;;;;;3.97;1.30;;;;;;;;;;5136709;27;20414;-65
2023/10/08 12:50:52;;;;;;;3.38;1.27;;;;;;;;;;5141947;27;20485;-65
2023/10/08 12:53:23;;;;;;;4.70;1.38;;;;;;;;;;5129947;27;20406;-66
2023/10/08 12:55:53;;;;;;;4.80;1.33;;;;;;;;;;5141141;27;20420;-62
2023/10/08 12:58:23;;;;;;;3.47;1.70;;;;;;;;;;5140025;27;20904;-63
2023/10/08 13:00:57;;;;;;;3.23;1.13;;;;;;;;;;5141907;27;20405;-62
2023/10/08 13:03:24;;;;;;;4.57;1.40;;;;;;;;;;5142681;27;20452;-62
2023/10/08 13:05:53;;;;;;;6.00;1.30;;;;;;;;;;5137747;27;20422;-62
2023/10/08 13:08:20;;;;;;;3.20;1.40;;;;;;;;;;5135204;27;20486;-64
2023/10/08 13:10:47;;;;;;;2.25;1.10;;;;;;;;;;5135913;27;20488;-63
2023/10/08 13:13:14;;;;;;;3.17;1.30;;;;;;;;;;5138912;27;20454;-63
2023/10/08 13:15:42;;;;;;;3.72;1.30;;;;;;;;;;5141516;27;20806;-62
2023/10/08 13:18:10;;;;;;;3.28;1.30;;;;;;;;;;5139252;27;20830;-63
2023/10/08 13:20:40;;;;;;;5.88;1.17;;;;;;;;;;5138776;27;20401;-62
2023/10/08 13:23:09;;;;;;;3.63;1.20;;;;;;;;;;5134676;27;20403;-63
2023/10/08 13:25:39;;;;;;;4.50;1.30;;;;;;;;;;5131257;27;20913;-63
2023/10/08 13:28:07;;;;;;;3.63;1.20;;;;;;;;;;5142034;27;20842;-63
2023/10/08 13:30:34;;;;;;;4.57;1.40;;;;;;;;;;5132812;27;20772;-64
2023/10/08 13:33:01;;;;;;;5.18;1.42;;;;;;;;;;5137640;27;20476;-63
2023/10/08 13:35:28;;;;;;;4.57;1.40;;;;;;;;;;5137029;27;20448;-63
2023/10/08 13:37:56;;;;;;;5.10;1.52;;;;;;;;;;5142125;27;20408;-63
2023/10/08 13:40:32;;;;;;;3.15;1.50;;;;;;;;;;5140079;27;20413;-63
2023/10/08 13:42:59;;;;;;;5.65;1.75;;;;;;;;;;5139659;27;20399;-63
2023/10/08 13:45:29;;;;;;;3.15;1.77;;;;;;;;;;5143171;27;20416;-63
2023/10/08 13:47:59;;;;;;;4.07;2.05;;;;;;;;;;5142467;27;20420;-68
2023/10/08 13:50:30;;;;;;;6.03;1.93;;;;;;;;;;5139438;27;20413;-64
2023/10/08 13:52:58;;;;;;;5.32;2.22;;;;;;;;;;5137694;27;20417;-63
2023/10/08 13:55:26;;;;;;;5.50;2.22;;;;;;;;;;5131052;27;20761;-63
2023/10/08 13:57:54;;;;;;;6.75;2.67;;;;;;;;;;5135892;27;20498;-63
2023/10/08 14:00:26;;;;;;;5.20;2.63;;;;;;;;;;5140483;27;20870;-63
2023/10/08 14:02:53;;;;;;;4.72;2.40;;;;;;;;;;5141406;27;20883;-63
2023/10/08 14:05:24;;;;;;;8.13;4.07;;;;;;;;;;5142100;27;20473;-63
2023/10/08 14:07:51;;;;;;;7.37;4.13;;;;;;;;;;5142089;27;20401;-63
2023/10/08 14:10:19;;;;;;;8.52;3.00;;;;;;;;;;5142175;27;20459;-63
2023/10/08 14:12:49;;;;;;;6.97;3.47;;;;;;;;;;5140154;27;20995;-63
2023/10/08 14:15:17;;;;;;;6.85;3.38;;;;;;;;;;5138937;27;20481;-63
2023/10/08 14:17:48;;;;;;;7.00;3.40;;;;;;;;;;5141632;27;20397;-64
2023/10/08 14:20:21;;;;;;;5.80;3.38;;;;;;;;;;5141735;27;20465;-63
2023/10/08 14:22:52;;;;;;;6.28;3.53;;;;;;;;;;5131969;27;20404;-65
2023/10/08 14:25:24;;;;;;;7.88;3.90;;;;;;;;;;5136416;27;20424;-64
2023/10/08 14:27:52;;;;;;;10.45;4.75;;;;;;;;;;5140129;27;20428;-64
2023/10/08 14:30:23;;;;;;;8.85;5.03;;;;;;;;;;5144449;27;21248;-64
2023/10/08 14:32:50;;;;;;;9.98;5.45;;;;;;;;;;5146079;27;20894;-64
2023/10/08 14:43:34;;;;;;;7.55;4.90;;;;;;;;;;5139135;27;20686;-66
2023/10/08 14:46:04;;;;;;;8.07;4.68;;;;;;;;;;5143523;27;20413;-65
2023/10/08 14:48:33;;;;;;;6.78;3.40;;;;;;;;;;5145662;27;20396;-66
2023/10/08 14:51:01;;;;;;;5.25;3.15;;;;;;;;;;5144184;27;20464;-63
2023/10/08 14:53:29;;;;;;;6.00;3.58;;;;;;;;;;5137328;27;20924;-63
2023/10/08 14:55:57;;;;;;;6.75;3.50;;;;;;;;;;5134281;27;20402;-62
2023/10/08 14:58:25;;;;;;;6.60;3.42;;;;;;;;;;5144332;27;20440;-62
2023/10/08 15:00:54;;;;;;;5.60;3.80;;;;;;;;;;5145271;27;20606;-62
2023/10/08 15:03:21;;;;;;;6.77;3.47;;;;;;;;;;5139398;27;20967;-62
2023/10/08 15:05:49;;;;;;;5.43;3.40;;;;;;;;;;5143027;27;20416;-62
2023/10/08 15:08:18;;;;;;;5.35;3.28;;;;;;;;;;5136520;27;20405;-62
2023/10/08 15:10:47;;;;;;;6.35;2.60;;;;;;;;;;5141870;27;20410;-64
2023/10/08 15:13:15;;;;;;;8.35;2.75;;;;;;;;;;5140341;27;20434;-63
2023/10/08 15:15:43;;;;;;;4.55;2.53;;;;;;;;;;5143566;27;20437;-62
2023/10/08 15:18:12;;;;;;;5.13;2.92;;;;;;;;;;5141508;27;20885;-62